Flight Briefing for CPX209

Departure Arrival
Los Angeles International Airport (KLAX)
Click to view FAA NOTAMS
Miami International Airport (KMIA)
Click to view FAA NOTAMS
Departure Time Arrival Time
1100 UTC 1545 UTC
Aircraft Distance
B767-300BDSF 2091nm
Departure METAR Arrival METAR
KLAX 271053Z 01007KT 10SM FEW020 FEW070 12/07 A2996 RMK AO2 SLP144 T01170072 KMIA 271053Z 07007KT 10SM FEW024 26/20 A3005 RMK AO2 SLP175 T02610200
Suggested Route
DOTSS2 CNERY BLH J65 KOFFA J169 TFD J50 ELP J2 JCT J86 LEV Q102 BAGGS SSCOT5


View recent IFR Routes data
Notes



Charts and Procedures

Charts for KLAX
No chart available
Charts for KMIA
No chart available

Windy.com Weather Map